Time;durP1;ratioP1;P1;durP2;ratioP2;P2;SDS_P1;SDS_P2;PMS_P1;PMS_P2;Temp;Humidity;BMP_temperature;BMP_pressure;BME280_temperature;BME280_humidity;BME280_pressure;Samples;Min_cycle;Max_cycle;Signal;HPM_P1;HPM_P2
2021/07/22 00:00:32;;;;;;;;;;;;;;;;;;1450206;41;7045;-65
2021/07/22 00:01:35;;;;;;;;;;;;;;;;;;1449896;41;7021;-64
2021/07/22 00:02:37;;;;;;;;;;;;;;;;;;1450034;41;7189;-65
2021/07/22 00:03:40;;;;;;;;;;;;;;;;;;1449636;41;7004;-65
2021/07/22 00:05:05;;;;;;;;;;;;;;;;;;1449393;41;7032;-65
2021/07/22 00:06:08;;;;;;;;;;;;;;;;;;1450373;41;7196;-65
2021/07/22 00:07:10;;;;;;;;;;;;;;;;;;1450028;41;7542;-65
2021/07/22 00:08:12;;;;;;;;;;;;;;;;;;1450225;41;7009;-65
2021/07/22 00:09:15;;;;;;;;;;;;;;;;;;1449998;41;7001;-65
2021/07/22 00:10:17;;;;;;;;;;;;;;;;;;1449992;41;7000;-65
2021/07/22 00:11:20;;;;;;;;;;;;;;;;;;1450001;41;7005;-65
2021/07/22 00:12:22;;;;;;;;;;;;;;;;;;1450346;41;7052;-65
2021/07/22 00:13:24;;;;;;;;;;;;;;;;;;1449872;41;7233;-65
2021/07/22 00:14:29;;;;;;;;;;;;;;;;;;1450248;41;7008;-64
2021/07/22 00:15:33;;;;;;;;;;;;;;;;;;1449501;41;7124;-64
2021/07/22 00:16:36;;;;;;;;;;;;;;;;;;1449658;41;7044;-65
2021/07/22 00:17:38;;;;;;;;;;;;;;;;;;1450076;41;7049;-64
2021/07/22 00:18:41;;;;;;;;;;;;;;;;;;1450152;41;7071;-65
2021/07/22 00:19:43;;;;;;;;;;;;;;;;;;1449832;41;7193;-66
2021/07/22 00:20:46;;;;;;;;;;;;;;;;;;1450362;41;7048;-65
2021/07/22 00:21:48;;;;;;;;;;;;;;;;;;1449826;41;7109;-65
2021/07/22 00:22:51;;;;;;;;;;;;;;;;;;1450159;41;7028;-65
2021/07/22 00:23:53;;;;;;;;;;;;;;;;;;1449839;41;7177;-64
2021/07/22 00:24:55;;;;;;;;;;;;;;;;;;1449636;41;7052;-65
2021/07/22 00:26:02;;;;;;;;;;;;;;;;;;1449679;41;7000;-65
2021/07/22 00:27:04;;;;;;;;;;;;;;;;;;1449786;41;7008;-65
2021/07/22 00:28:07;;;;;;;;;;;;;;;;;;1449660;41;7017;-65
2021/07/22 00:29:09;;;;;;;;;;;;;;;;;;1450209;41;7008;-65
2021/07/22 00:30:12;;;;;;;;;;;;;;;;;;1449555;41;7012;-64
2021/07/22 00:31:14;;;;;;;;;;;;;;;;;;1449936;41;7035;-65
2021/07/22 00:32:17;;;;;;;;;;;;;;;;;;1449613;41;7880;-65
2021/07/22 00:33:19;;;;;;;;;;;;;;;;;;1449755;41;7956;-65
2021/07/22 00:34:22;;;;;;;;;;;;;;;;;;1450317;41;7009;-65
2021/07/22 00:35:24;;;;;;;;;;;;;;;;;;1450419;41;7067;-65
2021/07/22 00:36:27;;;;;;;;;;;;;;;;;;1449181;41;7000;-64
2021/07/22 00:37:29;;;;;;;;;;;;;;;;;;1450074;41;7052;-64
2021/07/22 00:38:32;;;;;;;;;;;;;;;;;;1450283;41;7000;-65
2021/07/22 00:39:36;;;;;;;;;;;;;;;;;;1449857;41;7008;-64
2021/07/22 00:40:45;;;;;;;;;;;;;;;;;;1449567;41;7011;-65
2021/07/22 00:41:48;;;;;;;;;;;;;;;;;;1449766;41;7913;-65
2021/07/22 00:42:54;;;;;;;;;;;;;;;;;;1449796;41;7040;-65
2021/07/22 00:43:57;;;;;;;;;;;;;;;;;;1449800;41;7000;-65
2021/07/22 00:44:59;;;;;;;;;;;;;;;;;;1449810;41;7196;-65
2021/07/22 00:46:01;;;;;;;;;;;;;;;;;;1450225;41;7000;-65
2021/07/22 00:47:04;;;;;;;;;;;;;;;;;;1450198;41;7017;-65
2021/07/22 00:48:06;;;;;;;;;;;;;;;;;;1450468;41;7035;-65
2021/07/22 00:49:10;;;;;;;;;;;;;;;;;;1449735;41;7017;-65
2021/07/22 00:50:12;;;;;;;;;;;;;;;;;;1449782;41;7945;-65
2021/07/22 00:51:15;;;;;;;;;;;;;;;;;;1449599;41;7017;-65
2021/07/22 00:52:17;;;;;;;;;;;;;;;;;;1450349;41;7009;-65
2021/07/22 00:53:20;;;;;;;;;;;;;;;;;;1450005;41;7000;-65
2021/07/22 00:54:22;;;;;;;;;;;;;;;;;;1450270;41;8019;-65
2021/07/22 00:55:27;;;;;;;;;;;;;;;;;;1449725;41;7131;-65
2021/07/22 00:56:30;;;;;;;;;;;;;;;;;;1449943;41;7013;-65
2021/07/22 00:57:32;;;;;;;;;;;;;;;;;;1449745;41;7057;-65
2021/07/22 00:58:35;;;;;;;;;;;;;;;;;;1449916;41;7177;-65
2021/07/22 00:59:37;;;;;;;;;;;;;;;;;;1450101;41;7000;-64
2021/07/22 01:00:39;;;;;;;;;;;;;;;;;;1450022;41;7500;-65
2021/07/22 01:01:42;;;;;;;;;;;;;;;;;;1449577;41;7083;-65
2021/07/22 01:02:45;;;;;;;;;;;;;;;;;;1449914;41;7012;-65
2021/07/22 01:03:48;;;;;;;;;;;;;;;;;;1449981;41;7035;-65
2021/07/22 01:04:50;;;;;;;;;;;;;;;;;;1449680;41;7004;-65
2021/07/22 01:05:52;;;;;;;;;;;;;;;;;;1449674;41;7036;-65
2021/07/22 01:06:56;;;;;;;;;;;;;;;;;;1449913;41;7044;-65
2021/07/22 01:07:59;;;;;;;;;;;;;;;;;;1449683;41;7032;-65
2021/07/22 01:09:01;;;;;;;;;;;;;;;;;;1450390;41;7021;-64
2021/07/22 01:10:05;;;;;;;;;;;;;;;;;;1450331;41;7004;-65
2021/07/22 01:11:07;;;;;;;;;;;;;;;;;;1449116;41;7924;-65
2021/07/22 01:12:10;;;;;;;;;;;;;;;;;;1449200;41;7007;-65
2021/07/22 01:13:12;;;;;;;;;;;;;;;;;;1449894;41;7008;-65
2021/07/22 01:14:14;;;;;;;;;;;;;;;;;;1449444;41;7032;-66
2021/07/22 01:15:17;;;;;;;;;;;;;;;;;;1450353;40;7044;-64
2021/07/22 01:16:20;;;;;;;;;;;;;;;;;;1450606;41;7004;-65
2021/07/22 01:17:37;;;;;;;;;;;;;;;;;;1450180;41;7220;-65
2021/07/22 01:18:40;;;;;;;;;;;;;;;;;;1450074;41;7009;-64
2021/07/22 01:19:42;;;;;;;;;;;;;;;;;;1450844;41;7181;-65
2021/07/22 01:20:44;;;;;;;;;;;;;;;;;;1450559;41;7940;-65
2021/07/22 01:21:47;;;;;;;;;;;;;;;;;;1449617;41;7009;-65
2021/07/22 01:22:51;;;;;;;;;;;;;;;;;;1450060;41;7225;-65
2021/07/22 01:23:53;;;;;;;;;;;;;;;;;;1450142;41;7004;-65
2021/07/22 01:24:56;;;;;;;;;;;;;;;;;;1450208;41;7000;-65
2021/07/22 01:25:58;;;;;;;;;;;;;;;;;;1450535;41;7036;-64
2021/07/22 01:27:01;;;;;;;;;;;;;;;;;;1450346;41;7200;-64
2021/07/22 01:28:04;;;;;;;;;;;;;;;;;;1450482;41;7281;-65
2021/07/22 01:29:06;;;;;;;;;;;;;;;;;;1450444;41;7008;-65
2021/07/22 01:30:09;;;;;;;;;;;;;;;;;;1450269;41;7013;-65
2021/07/22 01:31:11;;;;;;;;;;;;;;;;;;1450386;41;7241;-65
2021/07/22 01:32:14;;;;;;;;;;;;;;;;;;1449796;41;7952;-65
2021/07/22 01:33:16;;;;;;;;;;;;;;;;;;1450429;41;7029;-65
2021/07/22 01:34:19;;;;;;;;;;;;;;;;;;1450151;41;7053;-65
2021/07/22 01:35:21;;;;;;;;;;;;;;;;;;1450223;41;7000;-65
2021/07/22 01:36:23;;;;;;;;;;;;;;;;;;1450403;41;8000;-65
2021/07/22 01:37:26;;;;;;;;;;;;;;;;;;1450470;41;7036;-64
2021/07/22 01:38:28;;;;;;;;;;;;;;;;;;1450113;41;7025;-65
2021/07/22 01:39:31;;;;;;;;;;;;;;;;;;1450014;41;6996;-65
2021/07/22 01:40:33;;;;;;;;;;;;;;;;;;1449552;41;7875;-64
2021/07/22 01:41:38;;;;;;;;;;;;;;;;;;1450238;41;7053;-65
2021/07/22 01:42:40;;;;;;;;;;;;;;;;;;1450401;41;7032;-65
2021/07/22 01:43:43;;;;;;;;;;;;;;;;;;1450208;41;7013;-65
2021/07/22 01:44:45;;;;;;;;;;;;;;;;;;1450471;41;7253;-65
2021/07/22 01:45:48;;;;;;;;;;;;;;;;;;1450470;41;7004;-65
2021/07/22 01:46:58;;;;;;;;;;;;;;;;;;1450094;41;7028;-65
2021/07/22 01:48:01;;;;;;;;;;;;;;;;;;1450241;41;7885;-64
2021/07/22 01:49:03;;;;;;;;;;;;;;;;;;1450435;41;7028;-65
2021/07/22 01:50:06;;;;;;;;;;;;;;;;;;1450321;41;7084;-65
2021/07/22 01:51:08;;;;;;;;;;;;;;;;;;1450536;41;7227;-64
2021/07/22 01:52:11;;;;;;;;;;;;;;;;;;1450512;41;7039;-65
2021/07/22 01:53:14;;;;;;;;;;;;;;;;;;1450330;41;7096;-65
2021/07/22 01:54:16;;;;;;;;;;;;;;;;;;1450269;41;7012;-65
2021/07/22 01:55:19;;;;;;;;;;;;;;;;;;1450277;41;7205;-64
2021/07/22 01:56:21;;;;;;;;;;;;;;;;;;1450313;41;7929;-65
2021/07/22 01:57:24;;;;;;;;;;;;;;;;;;1450553;41;7040;-65
2021/07/22 01:58:27;;;;;;;;;;;;;;;;;;1450659;41;7036;-65
2021/07/22 01:59:35;;;;;;;;;;;;;;;;;;1450658;41;7049;-65
2021/07/22 02:00:38;;;;;;;;;;;;;;;;;;1450228;41;7000;-64
2021/07/22 02:01:40;;;;;;;;;;;;;;;;;;1450397;41;7000;-65
2021/07/22 02:02:43;;;;;;;;;;;;;;;;;;1450533;41;7039;-65
2021/07/22 02:03:45;;;;;;;;;;;;;;;;;;1450123;41;7036;-65
2021/07/22 02:04:48;;;;;;;;;;;;;;;;;;1449959;41;7845;-65
2021/07/22 02:05:52;;;;;;;;;;;;;;;;;;1450570;41;7984;-65
2021/07/22 02:06:55;;;;;;;;;;;;;;;;;;1450462;41;7081;-64
2021/07/22 02:07:58;;;;;;;;;;;;;;;;;;1450281;41;7005;-65
2021/07/22 02:09:00;;;;;;;;;;;;;;;;;;1450260;41;7180;-65
2021/07/22 02:10:03;;;;;;;;;;;;;;;;;;1450012;41;7009;-65
2021/07/22 02:11:05;;;;;;;;;;;;;;;;;;1450312;41;7055;-65
2021/07/22 02:12:08;;;;;;;;;;;;;;;;;;1450340;41;7023;-65
2021/07/22 02:13:10;;;;;;;;;;;;;;;;;;1450279;41;7008;-65
2021/07/22 02:14:13;;;;;;;;;;;;;;;;;;1449695;41;7008;-65
2021/07/22 02:15:15;;;;;;;;;;;;;;;;;;1445922;41;7008;-64
2021/07/22 02:16:18;;;;;;;;;;;;;;;;;;1445917;41;7032;-64
2021/07/22 02:17:20;;;;;;;;;;;;;;;;;;1450232;41;7047;-64
2021/07/22 02:18:23;;;;;;;;;;;;;;;;;;1450271;41;7076;-65
2021/07/22 02:19:26;;;;;;;;;;;;;;;;;;1450672;41;7017;-65
2021/07/22 02:20:28;;;;;;;;;;;;;;;;;;1450707;41;7005;-67
2021/07/22 02:21:31;;;;;;;;;;;;;;;;;;1450853;41;7076;-67
2021/07/22 02:22:33;;;;;;;;;;;;;;;;;;1449814;41;7009;-68
2021/07/22 02:23:36;;;;;;;;;;;;;;;;;;1449909;41;7000;-67
2021/07/22 02:24:38;;;;;;;;;;;;;;;;;;1449900;41;7004;-67
2021/07/22 02:25:41;;;;;;;;;;;;;;;;;;1449920;41;7063;-67
2021/07/22 02:26:43;;;;;;;;;;;;;;;;;;1449584;40;7008;-67
2021/07/22 02:27:46;;;;;;;;;;;;;;;;;;1449985;41;7209;-67
2021/07/22 02:28:50;;;;;;;;;;;;;;;;;;1449608;41;7924;-67
2021/07/22 02:29:52;;;;;;;;;;;;;;;;;;1449363;41;7008;-67
2021/07/22 02:30:54;;;;;;;;;;;;;;;;;;1449577;41;7008;-64
2021/07/22 02:31:57;;;;;;;;;;;;;;;;;;1449905;41;7007;-65
2021/07/22 02:32:59;;;;;;;;;;;;;;;;;;1449962;41;7008;-65
2021/07/22 02:34:02;;;;;;;;;;;;;;;;;;1450207;41;7017;-65
2021/07/22 02:35:04;;;;;;;;;;;;;;;;;;1450338;41;7956;-64
2021/07/22 02:36:07;;;;;;;;;;;;;;;;;;1449952;41;7946;-64
2021/07/22 02:37:09;;;;;;;;;;;;;;;;;;1450218;41;7048;-64
2021/07/22 02:38:11;;;;;;;;;;;;;;;;;;1450363;41;7048;-64
2021/07/22 02:39:14;;;;;;;;;;;;;;;;;;1450177;41;7004;-65
2021/07/22 02:40:16;;;;;;;;;;;;;;;;;;1449853;41;7013;-64
2021/07/22 02:41:19;;;;;;;;;;;;;;;;;;1450214;41;7016;-65
2021/07/22 02:42:21;;;;;;;;;;;;;;;;;;1450211;41;7036;-65
2021/07/22 02:43:24;;;;;;;;;;;;;;;;;;1450330;41;7110;-64
2021/07/22 02:44:26;;;;;;;;;;;;;;;;;;1450288;41;7080;-65
2021/07/22 02:45:28;;;;;;;;;;;;;;;;;;1450598;41;7032;-65
2021/07/22 02:46:31;;;;;;;;;;;;;;;;;;1449933;41;7024;-64
2021/07/22 02:47:33;;;;;;;;;;;;;;;;;;1449601;41;7032;-64
2021/07/22 02:48:36;;;;;;;;;;;;;;;;;;1445997;41;7314;-65
2021/07/22 02:49:38;;;;;;;;;;;;;;;;;;1445775;41;7287;-64
2021/07/22 02:50:42;;;;;;;;;;;;;;;;;;1450246;41;7032;-64
2021/07/22 02:51:45;;;;;;;;;;;;;;;;;;1445809;41;7193;-65
2021/07/22 02:52:47;;;;;;;;;;;;;;;;;;1446625;41;7080;-65
2021/07/22 02:53:50;;;;;;;;;;;;;;;;;;1445908;41;7048;-65
2021/07/22 02:54:52;;;;;;;;;;;;;;;;;;1447020;41;7122;-65
2021/07/22 02:55:59;;;;;;;;;;;;;;;;;;1446156;41;7005;-65
2021/07/22 02:57:02;;;;;;;;;;;;;;;;;;1446758;41;7032;-65
2021/07/22 02:58:05;;;;;;;;;;;;;;;;;;1446233;41;7012;-65
2021/07/22 02:59:07;;;;;;;;;;;;;;;;;;1446387;41;7121;-64
2021/07/22 03:00:10;;;;;;;;;;;;;;;;;;1446050;41;7032;-65
2021/07/22 03:01:12;;;;;;;;;;;;;;;;;;1446492;41;7008;-64
2021/07/22 03:02:15;;;;;;;;;;;;;;;;;;1446387;41;7028;-65
2021/07/22 03:03:17;;;;;;;;;;;;;;;;;;1446316;41;7367;-65
2021/07/22 03:04:20;;;;;;;;;;;;;;;;;;1446371;41;7973;-64
2021/07/22 03:05:22;;;;;;;;;;;;;;;;;;1446276;41;7009;-65
2021/07/22 03:06:24;;;;;;;;;;;;;;;;;;1446130;41;7004;-65
2021/07/22 03:07:27;;;;;;;;;;;;;;;;;;1446192;41;7045;-65
2021/07/22 03:08:29;;;;;;;;;;;;;;;;;;1446354;41;7844;-65
2021/07/22 03:09:32;;;;;;;;;;;;;;;;;;1446456;41;7004;-64
2021/07/22 03:10:34;;;;;;;;;;;;;;;;;;1446035;41;7032;-64
2021/07/22 03:11:37;;;;;;;;;;;;;;;;;;1446423;41;7004;-64
2021/07/22 03:12:39;;;;;;;;;;;;;;;;;;1446587;41;7004;-65
2021/07/22 03:13:41;;;;;;;;;;;;;;;;;;1446073;41;7144;-65
2021/07/22 03:14:44;;;;;;;;;;;;;;;;;;1445972;41;7008;-65
2021/07/22 03:15:46;;;;;;;;;;;;;;;;;;1446012;41;7008;-64
2021/07/22 03:16:49;;;;;;;;;;;;;;;;;;1446310;41;7121;-65
2021/07/22 03:17:51;;;;;;;;;;;;;;;;;;1446542;41;7004;-65
2021/07/22 03:18:54;;;;;;;;;;;;;;;;;;1442350;41;7029;-65
2021/07/22 03:19:56;;;;;;;;;;;;;;;;;;1442415;41;7122;-65
2021/07/22 03:21:01;;;;;;;;;;;;;;;;;;1445811;41;7033;-65
2021/07/22 03:22:03;;;;;;;;;;;;;;;;;;1446083;41;7008;-64
2021/07/22 03:23:06;;;;;;;;;;;;;;;;;;1446061;41;7008;-64
2021/07/22 03:24:08;;;;;;;;;;;;;;;;;;1446307;41;7114;-65
2021/07/22 03:25:11;;;;;;;;;;;;;;;;;;1445413;41;7009;-65
2021/07/22 03:26:18;;;;;;;;;;;;;;;;;;1445922;41;7024;-64
2021/07/22 03:27:20;;;;;;;;;;;;;;;;;;1446250;41;7045;-65
2021/07/22 03:28:23;;;;;;;;;;;;;;;;;;1445803;41;7008;-64
2021/07/22 03:29:25;;;;;;;;;;;;;;;;;;1445649;41;7009;-67
2021/07/22 03:30:28;;;;;;;;;;;;;;;;;;1446279;41;7008;-67
2021/07/22 03:31:30;;;;;;;;;;;;;;;;;;1445625;41;7004;-67
2021/07/22 03:32:36;;;;;;;;;;;;;;;;;;1445368;41;7036;-65
2021/07/22 03:33:38;;;;;;;;;;;;;;;;;;1445945;41;7053;-65
2021/07/22 03:34:41;;;;;;;;;;;;;;;;;;1446406;41;7055;-65
2021/07/22 03:35:44;;;;;;;;;;;;;;;;;;1445715;41;7008;-65
2021/07/22 03:36:46;;;;;;;;;;;;;;;;;;1446398;41;7000;-64
2021/07/22 03:37:49;;;;;;;;;;;;;;;;;;1446243;41;7174;-65
2021/07/22 03:38:51;;;;;;;;;;;;;;;;;;1446702;41;7000;-65
2021/07/22 03:39:53;;;;;;;;;;;;;;;;;;1445923;41;7036;-64
2021/07/22 03:40:56;;;;;;;;;;;;;;;;;;1445505;41;7387;-65
2021/07/22 03:41:58;;;;;;;;;;;;;;;;;;1446245;41;7004;-65
2021/07/22 03:43:01;;;;;;;;;;;;;;;;;;1446674;41;7119;-65
2021/07/22 03:44:03;;;;;;;;;;;;;;;;;;1446159;41;7000;-65
2021/07/22 03:45:06;;;;;;;;;;;;;;;;;;1446448;41;7009;-65
2021/07/22 03:46:08;;;;;;;;;;;;;;;;;;1446442;41;7008;-64
2021/07/22 03:47:11;;;;;;;;;;;;;;;;;;1446105;41;7115;-65
2021/07/22 03:48:14;;;;;;;;;;;;;;;;;;1446384;41;7013;-65
2021/07/22 03:49:16;;;;;;;;;;;;;;;;;;1446195;41;7904;-65
2021/07/22 03:50:19;;;;;;;;;;;;;;;;;;1446102;41;7001;-65
2021/07/22 03:51:21;;;;;;;;;;;;;;;;;;1446453;41;7014;-65
2021/07/22 03:52:24;;;;;;;;;;;;;;;;;;1446814;41;7000;-65
2021/07/22 03:53:26;;;;;;;;;;;;;;;;;;1446175;41;7119;-64
2021/07/22 03:54:30;;;;;;;;;;;;;;;;;;1446069;41;7228;-64
2021/07/22 03:55:32;;;;;;;;;;;;;;;;;;1446477;41;7000;-65
2021/07/22 03:56:35;;;;;;;;;;;;;;;;;;1446399;41;7032;-64
2021/07/22 03:57:37;;;;;;;;;;;;;;;;;;1446271;41;7001;-64
2021/07/22 03:58:40;;;;;;;;;;;;;;;;;;1446264;41;7182;-66
2021/07/22 03:59:42;;;;;;;;;;;;;;;;;;1446435;41;7000;-65
2021/07/22 04:00:45;;;;;;;;;;;;;;;;;;1446251;41;7451;-65
2021/07/22 04:01:47;;;;;;;;;;;;;;;;;;1446305;41;7013;-64
2021/07/22 04:03:00;;;;;;;;;;;;;;;;;;1446043;41;7977;-64
2021/07/22 04:04:02;;;;;;;;;;;;;;;;;;1446562;41;7049;-65
2021/07/22 04:05:05;;;;;;;;;;;;;;;;;;1446044;41;7065;-64
2021/07/22 04:06:10;;;;;;;;;;;;;;;;;;1446239;41;7048;-65
2021/07/22 04:07:13;;;;;;;;;;;;;;;;;;1445998;41;7013;-65
2021/07/22 04:08:16;;;;;;;;;;;;;;;;;;1446242;41;7189;-64
2021/07/22 04:09:18;;;;;;;;;;;;;;;;;;1446373;41;7008;-65
2021/07/22 04:10:26;;;;;;;;;;;;;;;;;;1446317;41;7527;-65
2021/07/22 04:11:28;;;;;;;;;;;;;;;;;;1441357;41;7337;-65
2021/07/22 04:12:30;;;;;;;;;;;;;;;;;;1441629;41;7274;-64
2021/07/22 04:13:33;;;;;;;;;;;;;;;;;;1445392;41;7012;-65
2021/07/22 04:14:35;;;;;;;;;;;;;;;;;;1445643;41;7018;-64
2021/07/22 04:15:38;;;;;;;;;;;;;;;;;;1445508;41;7063;-65
2021/07/22 04:16:40;;;;;;;;;;;;;;;;;;1445694;41;7240;-64
2021/07/22 04:17:43;;;;;;;;;;;;;;;;;;1446607;41;7018;-65
2021/07/22 04:18:45;;;;;;;;;;;;;;;;;;1446325;41;7021;-65
2021/07/22 04:19:47;;;;;;;;;;;;;;;;;;1445881;41;7008;-64
2021/07/22 04:20:50;;;;;;;;;;;;;;;;;;1446355;41;7017;-64
2021/07/22 04:21:53;;;;;;;;;;;;;;;;;;1446196;41;7017;-65
2021/07/22 04:22:59;;;;;;;;;;;;;;;;;;1438095;41;7053;-64
2021/07/22 04:24:04;;;;;;;;;;;;;;;;;;1438648;41;6996;-64
2021/07/22 04:25:07;;;;;;;;;;;;;;;;;;1446323;41;7016;-64
2021/07/22 04:26:15;;;;;;;;;;;;;;;;;;1445628;41;7005;-64
2021/07/22 04:27:21;;;;;;;;;;;;;;;;;;1445695;41;7236;-65
2021/07/22 04:28:24;;;;;;;;;;;;;;;;;;1446211;41;7001;-64
2021/07/22 04:29:26;;;;;;;;;;;;;;;;;;1445725;41;7049;-65
2021/07/22 04:30:29;;;;;;;;;;;;;;;;;;1445404;41;7913;-64
2021/07/22 04:31:31;;;;;;;;;;;;;;;;;;1445856;41;7000;-65
2021/07/22 04:32:34;;;;;;;;;;;;;;;;;;1445899;41;7945;-64
2021/07/22 04:33:36;;;;;;;;;;;;;;;;;;1445649;41;7020;-65
2021/07/22 04:34:38;;;;;;;;;;;;;;;;;;1445663;41;7097;-64
2021/07/22 04:35:41;;;;;;;;;;;;;;;;;;1446075;41;7017;-65
2021/07/22 04:36:43;;;;;;;;;;;;;;;;;;1446302;41;7184;-65
2021/07/22 04:37:46;;;;;;;;;;;;;;;;;;1446274;41;7000;-64
2021/07/22 04:38:49;;;;;;;;;;;;;;;;;;1445993;41;7016;-65
2021/07/22 04:39:51;;;;;;;;;;;;;;;;;;1445637;41;7103;-65
2021/07/22 04:40:54;;;;;;;;;;;;;;;;;;1445628;41;7004;-65
2021/07/22 04:41:56;;;;;;;;;;;;;;;;;;1446204;41;7000;-64
2021/07/22 04:43:02;;;;;;;;;;;;;;;;;;1445901;41;6996;-65
2021/07/22 04:44:04;;;;;;;;;;;;;;;;;;1446095;41;7000;-65
2021/07/22 04:45:07;;;;;;;;;;;;;;;;;;1446206;41;7001;-65
2021/07/22 04:46:09;;;;;;;;;;;;;;;;;;1445925;41;7068;-64
2021/07/22 04:47:12;;;;;;;;;;;;;;;;;;1446222;41;7017;-64
2021/07/22 04:48:15;;;;;;;;;;;;;;;;;;1446094;41;7195;-64
2021/07/22 04:49:18;;;;;;;;;;;;;;;;;;1446380;41;7032;-64
2021/07/22 04:50:20;;;;;;;;;;;;;;;;;;1446393;41;7013;-65
2021/07/22 04:51:22;;;;;;;;;;;;;;;;;;1446667;41;7028;-65
2021/07/22 04:52:25;;;;;;;;;;;;;;;;;;1447069;41;7012;-64
2021/07/22 04:53:27;;;;;;;;;;;;;;;;;;1446756;41;7040;-64
2021/07/22 04:54:30;;;;;;;;;;;;;;;;;;1446284;41;7001;-65
2021/07/22 04:55:32;;;;;;;;;;;;;;;;;;1446144;41;7932;-65
2021/07/22 04:56:35;;;;;;;;;;;;;;;;;;1447069;41;7001;-64
2021/07/22 04:57:37;;;;;;;;;;;;;;;;;;1446331;41;7000;-64
2021/07/22 04:58:40;;;;;;;;;;;;;;;;;;1446677;41;7009;-64
2021/07/22 04:59:42;;;;;;;;;;;;;;;;;;1446915;41;7009;-65
2021/07/22 05:00:44;;;;;;;;;;;;;;;;;;1446193;41;7088;-64
2021/07/22 05:01:52;;;;;;;;;;;;;;;;;;1446925;41;7000;-65
2021/07/22 05:03:00;;;;;;;;;;;;;;;;;;1446587;41;7036;-65
2021/07/22 05:04:03;;;;;;;;;;;;;;;;;;1446673;41;7039;-65
2021/07/22 05:05:06;;;;;;;;;;;;;;;;;;1442261;41;7153;-65
2021/07/22 05:06:08;;;;;;;;;;;;;;;;;;1442308;41;7036;-65
2021/07/22 05:07:11;;;;;;;;;;;;;;;;;;1446546;41;7008;-65
2021/07/22 05:08:14;;;;;;;;;;;;;;;;;;1446946;41;7028;-64
2021/07/22 05:09:17;;;;;;;;;;;;;;;;;;1445983;41;7071;-65
2021/07/22 05:10:20;;;;;;;;;;;;;;;;;;1446366;41;7021;-65
2021/07/22 05:11:22;;;;;;;;;;;;;;;;;;1446555;41;7004;-64
2021/07/22 05:12:24;;;;;;;;;;;;;;;;;;1446955;41;7424;-64
2021/07/22 05:13:27;;;;;;;;;;;;;;;;;;1446201;41;7004;-65
2021/07/22 05:14:29;;;;;;;;;;;;;;;;;;1446839;41;7004;-65
2021/07/22 05:15:32;;;;;;;;;;;;;;;;;;1446838;41;7032;-65
2021/07/22 05:16:34;;;;;;;;;;;;;;;;;;1446103;41;7004;-64
2021/07/22 05:17:37;;;;;;;;;;;;;;;;;;1442156;41;7021;-64
2021/07/22 05:18:39;;;;;;;;;;;;;;;;;;1442760;41;7040;-64
2021/07/22 05:19:42;;;;;;;;;;;;;;;;;;1447109;41;7017;-64
2021/07/22 05:20:44;;;;;;;;;;;;;;;;;;1446653;41;7083;-65
2021/07/22 05:21:47;;;;;;;;;;;;;;;;;;1446353;41;7001;-65
2021/07/22 05:22:49;;;;;;;;;;;;;;;;;;1446384;41;7217;-64
2021/07/22 05:23:54;;;;;;;;;;;;;;;;;;1446704;41;7063;-65
2021/07/22 05:24:57;;;;;;;;;;;;;;;;;;1446435;41;7009;-64
2021/07/22 05:26:04;;;;;;;;;;;;;;;;;;1446226;41;7981;-65
2021/07/22 05:27:06;;;;;;;;;;;;;;;;;;1446394;41;7005;-65
2021/07/22 05:28:08;;;;;;;;;;;;;;;;;;1446543;41;7031;-65
2021/07/22 05:29:11;;;;;;;;;;;;;;;;;;1441838;41;7024;-64
2021/07/22 05:30:13;;;;;;;;;;;;;;;;;;1442079;41;7013;-64
2021/07/22 05:31:17;;;;;;;;;;;;;;;;;;1446291;41;7004;-65
2021/07/22 05:32:20;;;;;;;;;;;;;;;;;;1446568;41;7004;-65
2021/07/22 05:33:23;;;;;;;;;;;;;;;;;;1446317;41;7041;-65
2021/07/22 05:34:27;;;;;;;;;;;;;;;;;;1446100;41;7009;-64
2021/07/22 05:35:29;;;;;;;;;;;;;;;;;;1446514;41;7047;-65
2021/07/22 05:36:33;;;;;;;;;;;;;;;;;;1446735;41;7237;-64
2021/07/22 05:37:35;;;;;;;;;;;;;;;;;;1446116;41;7013;-65
2021/07/22 05:38:38;;;;;;;;;;;;;;;;;;1446144;41;7087;-64
2021/07/22 05:39:40;;;;;;;;;;;;;;;;;;1446213;41;7000;-64
2021/07/22 05:40:43;;;;;;;;;;;;;;;;;;1446081;41;7000;-65
2021/07/22 05:41:45;;;;;;;;;;;;;;;;;;1447100;41;7004;-64
2021/07/22 05:42:49;;;;;;;;;;;;;;;;;;1447103;41;7041;-64
2021/07/22 05:43:51;;;;;;;;;;;;;;;;;;1447185;41;7013;-64
2021/07/22 05:44:53;;;;;;;;;;;;;;;;;;1446773;41;7005;-64
2021/07/22 05:45:57;;;;;;;;;;;;;;;;;;1447037;41;7032;-65
2021/07/22 05:46:59;;;;;;;;;;;;;;;;;;1446433;41;7124;-64
2021/07/22 05:48:02;;;;;;;;;;;;;;;;;;1446514;41;7040;-64
2021/07/22 05:49:05;;;;;;;;;;;;;;;;;;1446299;41;7216;-64
2021/07/22 05:50:08;;;;;;;;;;;;;;;;;;1446377;41;7052;-64
2021/07/22 05:51:10;;;;;;;;;;;;;;;;;;1446595;41;7040;-65
2021/07/22 05:52:12;;;;;;;;;;;;;;;;;;1446870;41;7009;-65
2021/07/22 05:53:16;;;;;;;;;;;;;;;;;;1446644;41;7032;-64
2021/07/22 05:54:19;;;;;;;;;;;;;;;;;;1446589;41;7009;-65
2021/07/22 05:55:21;;;;;;;;;;;;;;;;;;1446856;41;7000;-64
2021/07/22 05:56:23;;;;;;;;;;;;;;;;;;1446504;41;8376;-65
2021/07/22 05:57:26;;;;;;;;;;;;;;;;;;1442195;41;7195;-64
2021/07/22 05:58:28;;;;;;;;;;;;;;;;;;1442621;41;7015;-64
2021/07/22 05:59:34;;;;;;;;;;;;;;;;;;1446474;41;6993;-64
2021/07/22 06:00:38;;;;;;;;;;;;;;;;;;1442445;41;6997;-64
2021/07/22 06:01:41;;;;;;;;;;;;;;;;;;1442508;41;7036;-64
2021/07/22 06:02:43;;;;;;;;;;;;;;;;;;1446851;41;7008;-64
2021/07/22 06:03:46;;;;;;;;;;;;;;;;;;1447138;41;7929;-64
2021/07/22 06:04:49;;;;;;;;;;;;;;;;;;1447144;41;7009;-64
2021/07/22 06:05:51;;;;;;;;;;;;;;;;;;1446684;41;7088;-64
2021/07/22 06:06:54;;;;;;;;;;;;;;;;;;1446654;41;7004;-64
2021/07/22 06:07:57;;;;;;;;;;;;;;;;;;1442377;41;7139;-64
2021/07/22 06:09:01;;;;;;;;;;;;;;;;;;1442196;41;7016;-66
2021/07/22 06:10:04;;;;;;;;;;;;;;;;;;1446463;41;7932;-64
2021/07/22 06:11:07;;;;;;;;;;;;;;;;;;1446404;41;7009;-64
2021/07/22 06:12:10;;;;;;;;;;;;;;;;;;1446487;41;7973;-64
2021/07/22 06:13:12;;;;;;;;;;;;;;;;;;1446723;41;7918;-64
2021/07/22 06:14:14;;;;;;;;;;;;;;;;;;1446377;41;7140;-64
2021/07/22 06:15:17;;;;;;;;;;;;;;;;;;1446486;41;7008;-64
2021/07/22 06:16:19;;;;;;;;;;;;;;;;;;1446497;41;7125;-64
2021/07/22 06:17:22;;;;;;;;;;;;;;;;;;1447030;41;7032;-65
2021/07/22 06:18:25;;;;;;;;;;;;;;;;;;1446308;41;7027;-64
2021/07/22 06:19:29;;;;;;;;;;;;;;;;;;1446718;41;7036;-64
2021/07/22 06:20:32;;;;;;;;;;;;;;;;;;1446908;41;7000;-65
2021/07/22 06:21:34;;;;;;;;;;;;;;;;;;1446648;41;7001;-64
2021/07/22 06:22:38;;;;;;;;;;;;;;;;;;1446427;41;7008;-64
2021/07/22 06:23:41;;;;;;;;;;;;;;;;;;1446252;41;7036;-64
2021/07/22 06:24:43;;;;;;;;;;;;;;;;;;1445626;41;7765;-64
2021/07/22 06:25:46;;;;;;;;;;;;;;;;;;1445776;41;7856;-64
2021/07/22 06:26:48;;;;;;;;;;;;;;;;;;1446594;41;7040;-64
2021/07/22 06:27:51;;;;;;;;;;;;;;;;;;1446246;41;7231;-64
2021/07/22 06:28:53;;;;;;;;;;;;;;;;;;1446587;41;7008;-64
2021/07/22 06:30:00;;;;;;;;;;;;;;;;;;1446545;41;7008;-64
2021/07/22 06:31:05;;;;;;;;;;;;;;;;;;1445958;41;7017;-64
2021/07/22 06:32:07;;;;;;;;;;;;;;;;;;1446285;41;7005;-65
2021/07/22 06:33:10;;;;;;;;;;;;;;;;;;1446478;41;9478;-64
2021/07/22 06:34:12;;;;;;;;;;;;;;;;;;1446323;41;7000;-65
2021/07/22 06:35:15;;;;;;;;;;;;;;;;;;1446662;41;7001;-64
2021/07/22 06:36:17;;;;;;;;;;;;;;;;;;1446010;41;7005;-64
2021/07/22 06:37:20;;;;;;;;;;;;;;;;;;1446540;41;7009;-64
2021/07/22 06:38:29;;;;;;;;;;;;;;;;;;1446427;41;7075;-64
2021/07/22 06:39:32;;;;;;;;;;;;;;;;;;1445940;41;7000;-64
2021/07/22 06:40:37;;;;;;;;;;;;;;;;;;1446081;41;7137;-64
2021/07/22 06:41:40;;;;;;;;;;;;;;;;;;1446491;41;7339;-64
2021/07/22 06:42:43;;;;;;;;;;;;;;;;;;1446512;41;7012;-64
2021/07/22 06:43:45;;;;;;;;;;;;;;;;;;1446308;41;7008;-64
2021/07/22 06:44:47;;;;;;;;;;;;;;;;;;1447046;41;7020;-64
2021/07/22 06:45:50;;;;;;;;;;;;;;;;;;1446368;41;7036;-64
2021/07/22 06:46:52;;;;;;;;;;;;;;;;;;1446886;41;7949;-64
2021/07/22 06:47:55;;;;;;;;;;;;;;;;;;1446959;41;7005;-64
2021/07/22 06:48:59;;;;;;;;;;;;;;;;;;1445986;41;7164;-64
2021/07/22 06:50:02;;;;;;;;;;;;;;;;;;1445939;41;7048;-64
2021/07/22 06:51:08;;;;;;;;;;;;;;;;;;1446487;41;7017;-64
2021/07/22 06:52:10;;;;;;;;;;;;;;;;;;1446434;41;7008;-64
2021/07/22 06:53:14;;;;;;;;;;;;;;;;;;1446753;41;7240;-64
2021/07/22 06:54:17;;;;;;;;;;;;;;;;;;1446700;41;7028;-64
2021/07/22 06:55:20;;;;;;;;;;;;;;;;;;1446323;41;7945;-65
2021/07/22 06:56:22;;;;;;;;;;;;;;;;;;1446529;41;7013;-65
2021/07/22 06:57:24;;;;;;;;;;;;;;;;;;1446757;41;7194;-65
2021/07/22 06:58:27;;;;;;;;;;;;;;;;;;1446200;41;6996;-65
2021/07/22 06:59:29;;;;;;;;;;;;;;;;;;1446245;41;7036;-65
2021/07/22 07:00:33;;;;;;;;;;;;;;;;;;1446817;41;7304;-65
2021/07/22 07:01:35;;;;;;;;;;;;;;;;;;1442474;41;7005;-65
2021/07/22 07:02:37;;;;;;;;;;;;;;;;;;1442574;41;7005;-65
2021/07/22 07:03:40;;;;;;;;;;;;;;;;;;1446691;41;7004;-65
2021/07/22 07:04:42;;;;;;;;;;;;;;;;;;1446314;41;7024;-65
2021/07/22 07:05:45;;;;;;;;;;;;;;;;;;1446611;41;7013;-64
2021/07/22 07:06:47;;;;;;;;;;;;;;;;;;1446570;41;7036;-65
2021/07/22 07:07:49;;;;;;;;;;;;;;;;;;1447089;41;7004;-64
2021/07/22 07:08:52;;;;;;;;;;;;;;;;;;1446411;41;7013;-65
2021/07/22 07:09:54;;;;;;;;;;;;;;;;;;1446634;41;7960;-64
2021/07/22 07:10:57;;;;;;;;;;;;;;;;;;1446518;41;7017;-65
2021/07/22 07:11:59;;;;;;;;;;;;;;;;;;1446756;41;7197;-65
2021/07/22 07:13:04;;;;;;;;;;;;;;;;;;1446171;41;7001;-64
2021/07/22 07:14:06;;;;;;;;;;;;;;;;;;1446764;41;7092;-64
2021/07/22 07:15:09;;;;;;;;;;;;;;;;;;1446844;41;7352;-64
2021/07/22 07:16:11;;;;;;;;;;;;;;;;;;1446346;41;7187;-64
2021/07/22 07:17:14;;;;;;;;;;;;;;;;;;1446399;41;7017;-64